createdAt,value
2022-11-23T00:02:10.762Z,99447.88
2022-11-23T00:04:43.159Z,99434.78
2022-11-23T00:07:12.906Z,99448.81
2022-11-23T00:09:42.840Z,99444.47
2022-11-23T00:12:12.754Z,99448.84
2022-11-23T00:14:42.458Z,99441.00
2022-11-23T00:17:12.159Z,99441.88
2022-11-23T00:19:44.478Z,99448.91
2022-11-23T00:22:14.196Z,99450.63
2022-11-23T00:24:43.888Z,99449.78
2022-11-23T00:27:13.634Z,99444.59
2022-11-23T00:29:43.415Z,99451.59
2022-11-23T00:32:13.084Z,99451.59
2022-11-23T00:34:45.495Z,99449.00
2022-11-23T00:37:15.200Z,99453.38
2022-11-23T00:39:44.887Z,99448.13
2022-11-23T00:42:14.616Z,99444.63
2022-11-23T00:44:44.312Z,99442.94
2022-11-23T00:47:14.000Z,99456.06
2022-11-23T00:49:46.331Z,99446.47
2022-11-23T00:52:16.031Z,99443.84
2022-11-23T00:54:45.736Z,99444.78
2022-11-23T00:57:15.431Z,99443.91
2022-11-23T00:59:45.108Z,99440.38
2022-11-23T01:02:14.892Z,99449.13
2022-11-23T01:04:47.318Z,99443.94
2022-11-23T01:07:17.088Z,99438.66
2022-11-23T01:09:46.848Z,99437.81
2022-11-23T01:12:16.572Z,99449.19
2022-11-23T01:14:46.322Z,99450.09
2022-11-23T01:17:16.059Z,99447.50
2022-11-23T01:19:48.624Z,99443.16
2022-11-23T01:22:20.317Z,99437.09
2022-11-23T01:24:50.039Z,99435.34
2022-11-23T01:27:19.752Z,99436.25
2022-11-23T01:29:49.465Z,99427.56
2022-11-23T01:32:19.180Z,99429.31
2022-11-23T01:34:51.473Z,99433.69
2022-11-23T01:37:21.207Z,99448.59
2022-11-23T01:39:51.653Z,99460.00
2022-11-23T01:42:21.418Z,99447.75
2022-11-23T01:44:52.036Z,99447.78
2022-11-23T01:47:21.764Z,99453.00
2022-11-23T01:49:55.889Z,99463.56
2022-11-23T01:52:28.033Z,99460.97
2022-11-23T01:55:06.955Z,99460.09
2022-11-23T01:57:42.075Z,99461.88
2022-11-23T02:00:13.672Z,99454.06
2022-11-23T02:02:50.938Z,99453.16
2022-11-23T02:05:27.006Z,99459.31
2022-11-23T02:07:57.323Z,99458.38
2022-11-23T02:10:27.683Z,99469.78
2022-11-23T02:12:57.787Z,99463.63
2022-11-23T02:15:27.735Z,99469.78
2022-11-23T02:17:57.780Z,99473.28
2022-11-23T02:20:30.219Z,99470.66
2022-11-23T02:23:12.676Z,99473.34
2022-11-23T02:25:57.257Z,99468.06
2022-11-23T02:28:31.326Z,99474.22
2022-11-23T02:31:01.201Z,99473.38
2022-11-23T02:33:31.326Z,99481.25
2022-11-23T02:36:04.136Z,99480.41
2022-11-23T02:38:36.842Z,99473.44
2022-11-23T02:41:09.306Z,99476.03
2022-11-23T02:43:39.264Z,99481.28
2022-11-23T02:46:09.937Z,99485.72
2022-11-23T02:48:39.679Z,99479.59
2022-11-23T02:51:09.589Z,99484.84
2022-11-23T02:53:39.419Z,99486.59
2022-11-23T02:56:11.791Z,99473.47
2022-11-23T02:58:41.499Z,99481.38
2022-11-23T03:01:11.259Z,99477.00
2022-11-23T03:03:41.002Z,99477.88
2022-11-23T03:06:10.855Z,99482.25
2022-11-23T03:08:40.551Z,99481.47
2022-11-23T03:11:12.905Z,99478.84
2022-11-23T03:13:42.736Z,99475.31
2022-11-23T03:16:13.513Z,99476.22
2022-11-23T03:18:43.529Z,99475.34
2022-11-23T03:21:13.424Z,99467.44
2022-11-23T03:23:43.343Z,99470.09
2022-11-23T03:26:15.745Z,99463.97
2022-11-23T03:28:45.555Z,99473.63
2022-11-23T03:31:15.317Z,99467.53
2022-11-23T03:33:45.260Z,99464.00
2022-11-23T03:36:15.131Z,99471.84
2022-11-23T03:38:44.904Z,99471.84
2022-11-23T03:41:17.255Z,99463.97
2022-11-23T03:43:46.976Z,99478.84
2022-11-23T03:46:16.728Z,99484.09
2022-11-23T03:48:46.436Z,99485.84
2022-11-23T03:51:16.222Z,99488.47
2022-11-23T03:53:45.944Z,99494.59
2022-11-23T03:56:18.518Z,99495.41
2022-11-23T03:58:48.270Z,99501.56
2022-11-23T04:01:18.283Z,99505.06
2022-11-23T04:03:48.023Z,99511.19
2022-11-23T04:06:17.793Z,99507.75
2022-11-23T04:08:47.529Z,99506.88
2022-11-23T04:11:19.877Z,99505.13
2022-11-23T04:13:49.711Z,99502.50
2022-11-23T04:16:19.544Z,99504.25
2022-11-23T04:18:49.283Z,99503.41
2022-11-23T04:21:18.987Z,99516.53
2022-11-23T04:23:48.699Z,99505.16
2022-11-23T04:26:21.099Z,99505.16
2022-11-23T04:28:50.835Z,99516.53
2022-11-23T04:31:20.699Z,99516.53
2022-11-23T04:33:50.376Z,99511.28
2022-11-23T04:36:20.075Z,99507.78
2022-11-23T04:38:49.820Z,99511.31
2022-11-23T04:41:22.396Z,99511.28
2022-11-23T04:43:52.431Z,99512.16
2022-11-23T04:46:22.216Z,99511.28
2022-11-23T04:48:52.154Z,99510.41
2022-11-23T04:51:21.895Z,99503.41
2022-11-23T04:53:52.356Z,99504.25
2022-11-23T04:56:24.664Z,99502.50
2022-11-23T04:58:54.366Z,99509.53
2022-11-23T05:01:24.157Z,99506.88
2022-11-23T05:03:54.047Z,99506.88
2022-11-23T05:06:23.794Z,99506.81
2022-11-23T05:08:54.403Z,99508.56
2022-11-23T05:11:27.217Z,99502.44
2022-11-23T05:13:57.072Z,99506.81
2022-11-23T05:16:26.778Z,99516.44
2022-11-23T05:18:56.522Z,99512.94
2022-11-23T05:21:26.292Z,99505.94
2022-11-23T05:23:57.124Z,99513.81
2022-11-23T05:26:29.516Z,99516.50
2022-11-23T05:28:59.235Z,99512.13
2022-11-23T05:31:30.121Z,99521.72
2022-11-23T05:33:59.887Z,99521.69
2022-11-23T05:36:29.611Z,99524.34
2022-11-23T05:38:59.421Z,99520.84
2022-11-23T05:41:31.728Z,99522.59
2022-11-23T05:44:01.503Z,99522.59
2022-11-23T05:46:31.216Z,99528.72
2022-11-23T05:49:01.025Z,99529.56
2022-11-23T05:51:32.444Z,99529.59
2022-11-23T05:54:02.349Z,99532.28
2022-11-23T05:56:38.810Z,99531.41
2022-11-23T05:59:10.177Z,99527.03
2022-11-23T06:01:39.945Z,99528.72
2022-11-23T06:04:09.856Z,99523.47
2022-11-23T06:06:39.590Z,99526.06
2022-11-23T06:09:09.339Z,99530.38
2022-11-23T06:11:41.688Z,99525.97
2022-11-23T06:14:14.354Z,99535.59
2022-11-23T06:16:44.395Z,99526.81
2022-11-23T06:19:14.255Z,99528.53
2022-11-23T06:21:48.939Z,99534.66
2022-11-23T06:24:20.117Z,99532.94
2022-11-23T06:26:52.532Z,99540.78
2022-11-23T06:29:22.802Z,99538.16
2022-11-23T06:31:52.605Z,99539.09
2022-11-23T06:34:22.385Z,99544.31
2022-11-23T06:36:52.168Z,99538.22
2022-11-23T06:39:21.938Z,99540.00
2022-11-23T06:42:06.390Z,99544.38
2022-11-23T06:44:44.135Z,99550.44
2022-11-23T06:47:16.907Z,99543.44
2022-11-23T06:49:48.456Z,99546.03
2022-11-23T06:52:18.296Z,99546.03
2022-11-23T06:54:48.047Z,99548.59
2022-11-23T06:57:20.402Z,99548.59
2022-11-23T06:59:50.182Z,99554.72
2022-11-23T07:02:20.427Z,99565.22
2022-11-23T07:04:50.112Z,99564.28
2022-11-23T07:07:19.847Z,99565.16
2022-11-23T07:09:49.792Z,99567.84
2022-11-23T07:12:22.134Z,99577.47
2022-11-23T07:14:51.865Z,99573.97
2022-11-23T07:17:21.705Z,99580.09
2022-11-23T07:19:51.395Z,99583.56
2022-11-23T07:22:21.108Z,99585.31
2022-11-23T07:24:50.840Z,99587.94
2022-11-23T07:27:23.800Z,99590.56
2022-11-23T07:29:53.539Z,99591.44
2022-11-23T07:32:23.231Z,99594.97
2022-11-23T07:34:52.932Z,99608.09
2022-11-23T07:37:22.648Z,99600.22
2022-11-23T07:39:57.927Z,99608.97
2022-11-23T07:42:35.583Z,99608.16
2022-11-23T07:45:08.075Z,99613.34
2022-11-23T07:47:38.229Z,99628.25
2022-11-23T07:50:09.979Z,99624.75
2022-11-23T07:52:40.291Z,99627.34
2022-11-23T07:55:11.091Z,99634.38
2022-11-23T07:57:43.379Z,99637.88
2022-11-23T08:00:14.499Z,99640.50
2022-11-23T08:03:04.109Z,99636.13
2022-11-23T08:05:35.803Z,99641.38
2022-11-23T08:08:05.916Z,99638.81
2022-11-23T08:10:41.907Z,99638.84
2022-11-23T08:13:17.000Z,99643.22
2022-11-23T08:15:53.285Z,99639.72
2022-11-23T08:18:24.753Z,99637.16
2022-11-23T08:20:54.512Z,99638.03
2022-11-23T08:23:25.831Z,99638.03
2022-11-23T08:25:55.618Z,99641.53
2022-11-23T08:28:28.105Z,99635.44
2022-11-23T08:30:57.828Z,99637.22
2022-11-23T08:33:28.351Z,99645.94
2022-11-23T08:35:58.056Z,99645.13
2022-11-23T08:38:27.798Z,99639.00
2022-11-23T08:41:01.292Z,99645.13
2022-11-23T08:43:33.602Z,99646.94
2022-11-23T08:46:09.296Z,99639.06
2022-11-23T08:48:40.721Z,99639.09
2022-11-23T08:51:10.798Z,99650.53
2022-11-23T08:53:41.019Z,99645.28
2022-11-23T08:56:11.491Z,99642.69
2022-11-23T08:58:43.848Z,99648.00
2022-11-23T09:01:15.076Z,99647.16
2022-11-23T09:03:45.309Z,99643.72
2022-11-23T09:06:15.463Z,99645.53
2022-11-23T09:08:48.025Z,99647.31
2022-11-23T09:11:20.957Z,99645.59
2022-11-23T09:13:53.320Z,99650.84
2022-11-23T09:16:23.656Z,99643.03
2022-11-23T09:18:58.956Z,99649.19
2022-11-23T09:21:33.572Z,99649.19
2022-11-23T09:24:03.308Z,99644.81
2022-11-23T09:26:34.032Z,99650.13
2022-11-23T09:29:06.919Z,99648.38
2022-11-23T09:31:36.807Z,99650.16
2022-11-23T09:34:06.740Z,99651.97
2022-11-23T09:36:36.479Z,99653.72
2022-11-23T09:39:06.647Z,99652.00
2022-11-23T09:42:04.306Z,99651.19
2022-11-23T09:44:52.584Z,99651.19
2022-11-23T09:47:38.325Z,99648.56
2022-11-23T09:50:17.935Z,99645.97
2022-11-23T09:52:53.457Z,99650.34
2022-11-23T09:55:39.507Z,99643.41
2022-11-23T09:58:10.376Z,99647.78
2022-11-23T10:00:49.148Z,99651.31
2022-11-23T10:03:21.247Z,99642.56
2022-11-23T10:06:03.910Z,99651.41
2022-11-23T10:08:44.384Z,99655.81
2022-11-23T10:11:38.174Z,99648.88
2022-11-23T10:14:24.190Z,99645.41
2022-11-23T10:17:04.955Z,99647.19
2022-11-23T10:19:50.071Z,99644.63
2022-11-23T10:22:25.224Z,99644.63
2022-11-23T10:24:56.607Z,99638.53
2022-11-23T10:27:27.396Z,99631.56
2022-11-23T10:29:57.557Z,99634.25
2022-11-23T10:32:35.894Z,99637.81
2022-11-23T10:35:14.512Z,99634.31
2022-11-23T10:37:44.631Z,99636.13
2022-11-23T10:40:20.044Z,99629.13
2022-11-23T10:42:54.686Z,99633.50
2022-11-23T10:45:26.204Z,99627.38
2022-11-23T10:48:00.805Z,99623.00
2022-11-23T10:50:34.925Z,99620.44
2022-11-23T10:53:23.511Z,99617.84
2022-11-23T10:55:58.158Z,99620.47
2022-11-23T10:58:31.429Z,99611.75
2022-11-23T11:01:06.093Z,99619.63
2022-11-23T11:03:38.583Z,99615.22
2022-11-23T11:06:10.194Z,99612.59
2022-11-23T11:08:53.515Z,99603.88
2022-11-23T11:11:29.028Z,99605.63
2022-11-23T11:14:06.981Z,99600.38
2022-11-23T11:16:38.679Z,99596.88
2022-11-23T11:19:25.799Z,99592.53
2022-11-23T11:21:55.788Z,99582.13
2022-11-23T11:24:33.937Z,99582.19
2022-11-23T11:27:08.018Z,99583.16
2022-11-23T11:29:41.859Z,99570.09
2022-11-23T11:32:16.700Z,99574.53
2022-11-23T11:34:54.308Z,99571.94
2022-11-23T11:37:35.116Z,99570.25
2022-11-23T11:40:12.947Z,99569.44
2022-11-23T11:42:46.795Z,99558.97
2022-11-23T11:45:20.274Z,99562.50
2022-11-23T11:47:56.975Z,99551.09
2022-11-23T11:50:34.199Z,99542.34
2022-11-23T11:53:08.646Z,99545.81
2022-11-23T11:55:51.352Z,99552.78
2022-11-23T11:58:22.432Z,99544.88
2022-11-23T12:00:53.811Z,99545.81
2022-11-23T12:03:30.312Z,99549.34
2022-11-23T12:06:09.981Z,99544.13
2022-11-23T12:08:48.597Z,99540.69
2022-11-23T12:11:19.651Z,99541.59
2022-11-23T12:13:51.060Z,99551.25
2022-11-23T12:16:31.325Z,99556.59
2022-11-23T12:19:16.310Z,99557.47
2022-11-23T12:22:24.667Z,99570.63
2022-11-23T12:25:11.707Z,99575.03
2022-11-23T12:27:52.356Z,99571.53
2022-11-23T12:30:26.219Z,99565.34
2022-11-23T12:33:20.595Z,99568.88
2022-11-23T12:36:01.345Z,99566.25
2022-11-23T12:38:46.447Z,99565.44
2022-11-23T12:41:27.265Z,99571.56
2022-11-23T12:44:10.987Z,99570.66
2022-11-23T12:46:47.907Z,99565.41
2022-11-23T12:49:32.513Z,99567.13
2022-11-23T12:52:15.394Z,99579.41
2022-11-23T12:54:57.669Z,99564.50
2022-11-23T12:57:34.459Z,99582.03
2022-11-23T13:00:09.209Z,99575.03
2022-11-23T13:03:23.757Z,99580.28
2022-11-23T13:06:24.733Z,99578.56
2022-11-23T13:09:21.474Z,99582.94
2022-11-23T13:12:14.665Z,99573.31
2022-11-23T13:14:57.981Z,99575.97
2022-11-23T13:17:37.859Z,99565.44
2022-11-23T13:20:48.532Z,99566.34
2022-11-23T13:23:21.831Z,99567.16
2022-11-23T13:26:16.817Z,99563.69
2022-11-23T13:28:50.926Z,99558.44
2022-11-23T13:31:31.446Z,99562.81
2022-11-23T13:34:03.127Z,99560.22
2022-11-23T13:37:11.675Z,99548.81
2022-11-23T13:40:05.114Z,99548.81
2022-11-23T13:42:37.190Z,99548.78
2022-11-23T13:45:34.130Z,99547.88
2022-11-23T13:48:48.911Z,99548.72
2022-11-23T13:51:08.591Z,99540.81
2022-11-23T13:53:41.503Z,99534.63
2022-11-23T13:56:27.491Z,99534.56
2022-11-23T13:58:59.385Z,99532.81
2022-11-23T14:01:59.317Z,99537.19
2022-11-23T14:04:33.453Z,99552.03
2022-11-23T14:07:07.149Z,99537.13
2022-11-23T14:09:41.962Z,99528.31
2022-11-23T14:12:20.604Z,99533.53
2022-11-23T14:14:58.276Z,99535.25
2022-11-23T14:18:06.648Z,99536.97
2022-11-23T14:20:47.647Z,99524.63
2022-11-23T14:23:46.371Z,99528.09
2022-11-23T14:26:29.298Z,99529.78
2022-11-23T14:29:19.573Z,99546.41
2022-11-23T14:32:03.498Z,99546.31
2022-11-23T14:34:43.251Z,99540.13
2022-11-23T14:37:25.762Z,99540.97
2022-11-23T14:40:15.242Z,99546.16
2022-11-23T14:42:48.944Z,99552.22
2022-11-23T14:45:19.163Z,99548.66
2022-11-23T14:47:48.951Z,99553.84
2022-11-23T14:50:27.525Z,99548.53
2022-11-23T14:53:01.915Z,99558.06
2022-11-23T14:55:33.474Z,99558.91
2022-11-23T14:58:07.623Z,99563.25
2022-11-23T15:00:41.998Z,99563.16
2022-11-23T15:03:48.771Z,99566.63
2022-11-23T15:06:11.924Z,99560.47
2022-11-23T15:08:52.913Z,99559.53
2022-11-23T15:11:27.023Z,99563.88
2022-11-23T15:13:58.351Z,99568.22
2022-11-23T15:16:29.170Z,99569.00
2022-11-23T15:18:59.415Z,99570.72
2022-11-23T15:21:30.150Z,99568.00
2022-11-23T15:24:02.536Z,99566.22
2022-11-23T15:26:48.116Z,99575.81
2022-11-23T15:29:33.658Z,99581.88
2022-11-23T15:32:29.176Z,99577.47
2022-11-23T15:34:56.288Z,99584.41
2022-11-23T15:37:27.198Z,99592.28
2022-11-23T15:40:00.213Z,99588.75
2022-11-23T15:42:31.464Z,99582.63
2022-11-23T15:45:01.176Z,99584.38
2022-11-23T15:47:33.055Z,99582.63
2022-11-23T15:50:04.801Z,99587.91
2022-11-23T15:52:40.068Z,99587.03
2022-11-23T15:55:19.598Z,99597.53
2022-11-23T15:57:49.415Z,99608.03
2022-11-23T16:00:26.063Z,99608.06
2022-11-23T16:02:55.892Z,99599.34
2022-11-23T16:05:26.819Z,99605.47
2022-11-23T16:07:58.211Z,99607.25
2022-11-23T16:10:33.116Z,99602.84
2022-11-23T16:13:04.124Z,99603.72
2022-11-23T16:15:44.538Z,99592.28
2022-11-23T16:18:27.967Z,99603.66
2022-11-23T16:21:00.569Z,99597.50
2022-11-23T16:23:37.985Z,99613.19
2022-11-23T16:26:10.521Z,99610.56
2022-11-23T16:28:42.302Z,99605.28
2022-11-23T16:31:32.028Z,99613.16
2022-11-23T16:34:01.733Z,99601.78
2022-11-23T16:36:31.936Z,99605.28
2022-11-23T16:39:05.620Z,99601.78
2022-11-23T16:41:38.339Z,99604.41
2022-11-23T16:44:08.304Z,99600.91
2022-11-23T16:46:43.287Z,99603.56
2022-11-23T16:49:18.891Z,99598.28
2022-11-23T16:51:56.248Z,99597.38
2022-11-23T16:54:26.583Z,99598.28
2022-11-23T16:56:58.997Z,99603.53
2022-11-23T16:59:28.719Z,99607.06
2022-11-23T17:01:58.640Z,99600.94
2022-11-23T17:04:28.519Z,99606.25
2022-11-23T17:06:58.255Z,99605.38
2022-11-23T17:09:28.024Z,99615.00
2022-11-23T17:12:00.515Z,99622.88
2022-11-23T17:14:30.349Z,99627.25
2022-11-23T17:17:03.092Z,99621.97
2022-11-23T17:19:33.200Z,99632.44
2022-11-23T17:22:03.010Z,99631.56
2022-11-23T17:24:34.186Z,99634.16
2022-11-23T17:27:06.960Z,99633.22
2022-11-23T17:29:41.482Z,99644.53
2022-11-23T17:32:14.135Z,99646.25
2022-11-23T17:34:44.102Z,99648.88
2022-11-23T17:37:20.072Z,99639.25
2022-11-23T17:39:50.525Z,99647.06
2022-11-23T17:42:22.907Z,99648.78
2022-11-23T17:44:52.703Z,99655.72
2022-11-23T17:47:28.928Z,99664.47
2022-11-23T17:49:59.415Z,99666.16
2022-11-23T17:52:29.183Z,99667.00
2022-11-23T17:54:58.910Z,99668.72
2022-11-23T17:57:31.433Z,99670.47
2022-11-23T18:00:03.502Z,99680.06
2022-11-23T18:02:33.423Z,99679.19
2022-11-23T18:05:03.132Z,99680.06
2022-11-23T18:07:32.854Z,99680.00
2022-11-23T18:10:02.583Z,99687.00
2022-11-23T18:12:34.984Z,99685.19
2022-11-23T18:15:04.731Z,99673.78
2022-11-23T18:17:34.452Z,99683.44
2022-11-23T18:20:04.180Z,99691.31
2022-11-23T18:22:34.036Z,99694.75
2022-11-23T18:25:03.755Z,99695.66
2022-11-23T18:27:36.114Z,99686.88
2022-11-23T18:30:06.057Z,99698.22
2022-11-23T18:32:35.783Z,99681.59
2022-11-23T18:35:05.527Z,99703.41
2022-11-23T18:37:35.280Z,99698.09
2022-11-23T18:40:05.398Z,99698.09
2022-11-23T18:42:37.759Z,99703.34
2022-11-23T18:45:08.636Z,99708.53
2022-11-23T18:47:38.358Z,99707.66
2022-11-23T18:50:09.079Z,99711.16
2022-11-23T18:52:38.863Z,99705.91
2022-11-23T18:55:09.667Z,99699.81
2022-11-23T18:57:42.000Z,99709.47
2022-11-23T19:00:13.064Z,99715.53
2022-11-23T19:02:42.801Z,99707.66
2022-11-23T19:05:12.645Z,99709.41
2022-11-23T19:07:42.432Z,99710.25
2022-11-23T19:10:12.668Z,99724.22
2022-11-23T19:12:45.116Z,99712.84
2022-11-23T19:15:15.200Z,99723.34
2022-11-23T19:17:45.153Z,99718.09
2022-11-23T19:20:15.079Z,99727.75
2022-11-23T19:22:44.817Z,99724.22
2022-11-23T19:25:14.581Z,99732.13
2022-11-23T19:27:49.032Z,99746.13
2022-11-23T19:30:19.633Z,99748.75
2022-11-23T19:32:49.352Z,99744.38
2022-11-23T19:35:19.233Z,99747.97
2022-11-23T19:37:49.913Z,99749.72
2022-11-23T19:40:20.073Z,99758.50
2022-11-23T19:42:52.419Z,99761.09
2022-11-23T19:45:22.119Z,99774.16
2022-11-23T19:47:51.845Z,99773.34
2022-11-23T19:50:21.552Z,99778.59
2022-11-23T19:53:11.355Z,99776.03
2022-11-23T19:55:40.946Z,99779.56
2022-11-23T19:58:13.282Z,99782.22
2022-11-23T20:00:45.697Z,99784.88
2022-11-23T20:03:15.832Z,99778.75
2022-11-23T20:05:59.248Z,99796.31
2022-11-23T20:08:29.612Z,99792.81
2022-11-23T20:10:59.527Z,99791.97
2022-11-23T20:13:32.046Z,99787.63
2022-11-23T20:16:05.042Z,99795.53
2022-11-23T20:18:35.168Z,99796.41
2022-11-23T20:21:05.232Z,99792.91
2022-11-23T20:23:34.973Z,99799.91
2022-11-23T20:26:04.705Z,99796.47
2022-11-23T20:28:37.582Z,99811.34
2022-11-23T20:31:07.467Z,99813.16
2022-11-23T20:33:37.192Z,99807.06
2022-11-23T20:36:11.399Z,99812.31
2022-11-23T20:38:41.390Z,99817.56
2022-11-23T20:41:16.100Z,99825.50
2022-11-23T20:43:49.815Z,99820.25
2022-11-23T20:46:45.755Z,99820.31
2022-11-23T20:49:09.250Z,99827.31
2022-11-23T20:51:39.049Z,99823.84
2022-11-23T20:54:08.946Z,99823.03
2022-11-23T20:56:40.791Z,99835.28
2022-11-23T20:59:15.339Z,99840.53
2022-11-23T21:01:45.107Z,99841.41
2022-11-23T21:04:14.856Z,99834.47
2022-11-23T21:06:44.752Z,99844.91
2022-11-23T21:09:14.453Z,99841.41
2022-11-23T21:11:56.579Z,99843.16
2022-11-23T21:14:32.838Z,99843.06
2022-11-23T21:17:03.657Z,99843.00
2022-11-23T21:19:34.934Z,99841.25
2022-11-23T21:22:07.332Z,99839.44
2022-11-23T21:24:37.750Z,99844.63
2022-11-23T21:27:09.262Z,99848.19
2022-11-23T21:29:44.144Z,99852.50
2022-11-23T21:32:14.933Z,99853.38
2022-11-23T21:34:44.711Z,99850.69
2022-11-23T21:37:15.404Z,99856.75
2022-11-23T21:39:51.129Z,99862.00
2022-11-23T21:42:22.511Z,99858.44
2022-11-23T21:44:54.819Z,99863.69
2022-11-23T21:47:24.899Z,99879.44
2022-11-23T21:49:54.604Z,99883.78
2022-11-23T21:52:24.533Z,99886.31
2022-11-23T21:54:54.227Z,99890.63
2022-11-23T21:57:23.940Z,99894.94
2022-11-23T21:59:56.288Z,99898.41
2022-11-23T22:02:26.392Z,99900.94
2022-11-23T22:04:56.328Z,99897.44
2022-11-23T22:07:26.274Z,99894.81
2022-11-23T22:09:56.273Z,99911.50
2022-11-23T22:12:26.775Z,99910.56
2022-11-23T22:14:59.263Z,99908.81
2022-11-23T22:17:29.136Z,99921.03
2022-11-23T22:19:59.004Z,99924.47
2022-11-23T22:22:30.192Z,99925.28
2022-11-23T22:25:00.072Z,99933.97
2022-11-23T22:27:29.990Z,99922.53
2022-11-23T22:30:02.493Z,99935.66
2022-11-23T22:32:32.346Z,99930.41
2022-11-23T22:35:02.246Z,99934.72
2022-11-23T22:37:32.338Z,99951.31
2022-11-23T22:40:02.215Z,99943.34
2022-11-23T22:42:32.084Z,99965.22
2022-11-23T22:45:04.562Z,99973.09
2022-11-23T22:47:34.479Z,99968.66
2022-11-23T22:50:04.356Z,99967.78
2022-11-23T22:52:34.245Z,99975.72
2022-11-23T22:55:04.411Z,99978.28
2022-11-23T22:57:34.283Z,99983.53
2022-11-23T23:00:11.007Z,99997.56
2022-11-23T23:02:41.055Z,99998.41
2022-11-23T23:05:12.323Z,99993.16
2022-11-23T23:07:42.558Z,99997.53
2022-11-23T23:10:13.190Z,99995.88
2022-11-23T23:12:43.091Z,99989.72
2022-11-23T23:15:15.754Z,99997.69
2022-11-23T23:17:45.643Z,100000.31
2022-11-23T23:20:15.946Z,100002.88
2022-11-23T23:22:45.847Z,100003.78
2022-11-23T23:25:15.694Z,100016.06
2022-11-23T23:27:45.616Z,100016.06
2022-11-23T23:30:18.387Z,100003.84
2022-11-23T23:32:48.339Z,100002.13
2022-11-23T23:35:18.426Z,100002.13
2022-11-23T23:37:52.173Z,100010.88
2022-11-23T23:40:22.476Z,100012.56
2022-11-23T23:42:52.501Z,100002.88
2022-11-23T23:45:25.098Z,100011.63
2022-11-23T23:47:55.158Z,100013.31
2022-11-23T23:50:25.030Z,100020.28
2022-11-23T23:52:54.887Z,100014.06
2022-11-23T23:55:24.768Z,100011.34
2022-11-23T23:57:54.640Z,100017.41
